Time;durP1;ratioP1;P1;durP2;ratioP2;P2;SDS_P1;SDS_P2;PMS_P1;PMS_P2;Temp;Humidity;BMP_temperature;BMP_pressure;BME280_temperature;BME280_humidity;BME280_pressure;Samples;Min_cycle;Max_cycle;Signal;HPM_P1;HPM_P2
2024/03/23 00:02:03;;;;;;;13.07;2.80;;;5.60;99.90;;;;;;4984888;28;20041;-94
2024/03/23 00:04:30;;;;;;;17.27;2.47;;;5.60;99.90;;;;;;4965057;28;20189;-93
2024/03/23 00:06:57;;;;;;;13.80;2.63;;;5.60;99.90;;;;;;5001413;28;20018;-94
2024/03/23 00:09:24;;;;;;;22.45;3.00;;;5.60;99.90;;;;;;4986078;28;20625;-93
2024/03/23 00:11:50;;;;;;;13.93;2.50;;;5.60;99.90;;;;;;5001594;28;20100;-92
2024/03/23 00:14:17;;;;;;;13.07;2.33;;;5.60;99.90;;;;;;4968367;28;20048;-93
2024/03/23 00:16:43;;;;;;;6.57;1.45;;;5.60;99.90;;;;;;4984691;28;20113;-92
2024/03/23 00:19:10;;;;;;;18.90;3.88;;;5.50;99.90;;;;;;5000041;28;20504;-93
2024/03/23 00:21:40;;;;;;;11.90;3.45;;;5.50;99.90;;;;;;5018355;28;20033;-91
2024/03/23 00:24:07;;;;;;;13.48;2.20;;;5.50;99.90;;;;;;4983428;28;20438;-95
2024/03/23 00:26:34;;;;;;;15.10;2.40;;;5.50;99.90;;;;;;4983108;28;20034;-93
2024/03/23 00:29:00;;;;;;;14.57;2.65;;;5.50;99.90;;;;;;5001641;28;20464;-93
2024/03/23 00:31:27;;;;;;;20.35;2.83;;;5.40;99.90;;;;;;5001956;28;20040;-93
2024/03/23 00:33:54;;;;;;;11.35;2.47;;;5.30;99.90;;;;;;5002641;28;20090;-95
2024/03/23 00:36:20;;;;;;;12.30;2.25;;;5.20;99.90;;;;;;5000650;28;20034;-94
2024/03/23 00:38:47;;;;;;;12.63;3.40;;;5.10;99.90;;;;;;5021072;28;20022;-91
2024/03/23 00:41:14;;;;;;;14.68;2.60;;;5.10;99.90;;;;;;5008553;28;20022;-92
2024/03/23 00:43:40;;;;;;;9.40;1.67;;;5.10;99.90;;;;;;5024966;28;20025;-93
2024/03/23 00:46:07;;;;;;;16.90;2.20;;;5.00;99.90;;;;;;5007408;28;20018;-92
2024/03/23 00:48:34;;;;;;;14.75;1.85;;;5.00;99.90;;;;;;4984561;28;20092;-93
2024/03/23 00:51:00;;;;;;;16.13;2.60;;;5.00;99.90;;;;;;4999097;28;20022;-92
2024/03/23 00:53:27;;;;;;;15.10;2.60;;;5.00;99.90;;;;;;4982241;28;20042;-92
2024/03/23 00:55:52;;;;;;;20.73;3.65;;;5.00;99.90;;;;;;4999389;28;20014;-92
2024/03/23 00:58:18;;;;;;;21.73;2.45;;;5.00;99.90;;;;;;5015308;28;20507;-92
2024/03/23 01:00:44;;;;;;;20.15;3.08;;;5.00;99.90;;;;;;4997967;28;20479;-91
2024/03/23 01:03:09;;;;;;;17.85;3.35;;;5.00;99.90;;;;;;4998164;28;20503;-92
2024/03/23 01:05:35;;;;;;;10.02;2.63;;;5.00;99.90;;;;;;4998468;28;20399;-92
2024/03/23 01:08:01;;;;;;;18.55;3.97;;;5.00;99.90;;;;;;4998153;28;20534;-93
2024/03/23 01:10:26;;;;;;;19.08;2.63;;;5.00;99.90;;;;;;5015134;28;20034;-93
2024/03/23 01:12:52;;;;;;;20.27;2.80;;;5.10;99.90;;;;;;5015926;28;20030;-92
2024/03/23 01:15:17;;;;;;;17.45;2.47;;;5.10;99.90;;;;;;4999455;28;20022;-92
2024/03/23 01:17:43;;;;;;;14.52;2.45;;;5.10;99.90;;;;;;5019683;28;20030;-92
2024/03/23 01:20:09;;;;;;;20.13;2.42;;;5.10;99.90;;;;;;5000903;28;20041;-92
2024/03/23 01:22:35;;;;;;;8.65;2.10;;;5.10;99.90;;;;;;5018007;28;20281;-91
2024/03/23 01:25:00;;;;;;;12.27;1.98;;;5.10;99.90;;;;;;5001066;28;20060;-93
2024/03/23 01:27:26;;;;;;;12.27;2.13;;;5.10;99.90;;;;;;5017991;28;20021;-92
2024/03/23 01:29:52;;;;;;;8.68;1.75;;;5.10;99.90;;;;;;5001166;28;20026;-93
2024/03/23 01:32:18;;;;;;;17.52;2.20;;;5.10;99.90;;;;;;5007029;28;20089;-90
2024/03/23 01:34:44;;;;;;;16.42;2.25;;;5.20;99.90;;;;;;5002280;28;20045;-92
2024/03/23 01:37:10;;;;;;;15.57;2.50;;;5.20;99.90;;;;;;5001813;28;20014;-91
2024/03/23 01:39:36;;;;;;;18.35;2.40;;;5.20;99.90;;;;;;5008257;28;20038;-92
2024/03/23 01:42:02;;;;;;;18.30;2.17;;;5.10;99.90;;;;;;5008102;28;20022;-91
2024/03/23 01:44:28;;;;;;;13.70;2.78;;;5.20;99.90;;;;;;5005579;28;20117;-91
2024/03/23 01:46:53;;;;;;;15.10;3.25;;;5.20;99.90;;;;;;5027498;28;20009;-91
2024/03/23 01:49:20;;;;;;;13.40;2.13;;;5.20;99.90;;;;;;5004364;28;20022;-92
2024/03/23 01:51:46;;;;;;;16.50;2.22;;;5.20;99.90;;;;;;4998423;28;20018;-92
2024/03/23 01:54:12;;;;;;;13.15;2.22;;;5.20;99.90;;;;;;5015563;28;20029;-91
2024/03/23 01:56:38;;;;;;;17.58;2.10;;;5.10;99.90;;;;;;4997906;28;20068;-93
2024/03/23 01:59:07;;;;;;;14.48;1.92;;;5.10;99.90;;;;;;5014876;28;20034;-92
2024/03/23 02:01:38;;;;;;;19.45;2.08;;;5.10;99.90;;;;;;4996945;28;20014;-91
2024/03/23 02:04:04;;;;;;;14.77;2.60;;;5.10;99.90;;;;;;5011864;28;20022;-94
2024/03/23 02:06:30;;;;;;;12.43;1.80;;;5.10;99.90;;;;;;4996621;28;20468;-92
2024/03/23 02:08:57;;;;;;;14.38;2.00;;;5.10;99.90;;;;;;5014218;28;20574;-91
2024/03/23 02:11:22;;;;;;;13.95;2.80;;;5.10;99.90;;;;;;4993618;28;20093;-94
2024/03/23 02:13:48;;;;;;;23.08;3.42;;;5.10;99.90;;;;;;4996452;28;20018;-91
2024/03/23 02:16:14;;;;;;;38.70;3.95;;;5.10;99.90;;;;;;4996597;28;20070;-92
2024/03/23 02:18:39;;;;;;;14.88;2.40;;;5.10;99.90;;;;;;4996091;28;20042;-91
2024/03/23 02:21:05;;;;;;;18.92;2.35;;;5.10;99.90;;;;;;4995845;28;20029;-90
2024/03/23 02:23:31;;;;;;;14.70;2.08;;;5.10;99.90;;;;;;5013850;28;20056;-91
2024/03/23 02:25:57;;;;;;;21.17;2.60;;;5.10;99.90;;;;;;5013746;28;20033;-92
2024/03/23 02:28:22;;;;;;;23.98;2.25;;;5.10;99.90;;;;;;4993577;28;20018;-92
2024/03/23 02:30:52;;;;;;;9.00;2.10;;;5.10;99.90;;;;;;4995778;28;20399;-93
2024/03/23 02:33:18;;;;;;;17.95;2.20;;;5.10;99.90;;;;;;4996008;28;20392;-91
2024/03/23 02:35:44;;;;;;;16.70;2.05;;;5.10;99.90;;;;;;5013276;28;20026;-92
2024/03/23 02:38:10;;;;;;;17.15;1.65;;;5.10;99.90;;;;;;4995903;28;20025;-92
2024/03/23 02:40:36;;;;;;;11.32;1.58;;;5.10;99.90;;;;;;4998119;28;20395;-91
2024/03/23 02:43:03;;;;;;;14.55;1.52;;;5.10;99.90;;;;;;4996665;28;20065;-93
2024/03/23 02:45:29;;;;;;;14.98;2.30;;;5.10;99.90;;;;;;4999848;28;20022;-94
2024/03/23 02:47:55;;;;;;;17.80;2.03;;;5.10;99.90;;;;;;4999910;28;20022;-93
2024/03/23 02:50:21;;;;;;;9.35;2.20;;;5.00;99.90;;;;;;5016472;28;20490;-94
2024/03/23 02:52:47;;;;;;;16.13;2.08;;;5.00;99.90;;;;;;4996606;28;20160;-94
2024/03/23 02:55:13;;;;;;;11.75;2.63;;;5.00;99.90;;;;;;4999143;28;20029;-93
2024/03/23 02:57:38;;;;;;;14.82;2.53;;;5.00;99.90;;;;;;4999071;28;20021;-93
2024/03/23 03:00:06;;;;;;;13.60;1.98;;;5.00;99.90;;;;;;5016844;28;20040;-94
2024/03/23 03:02:32;;;;;;;15.88;2.95;;;5.00;99.90;;;;;;4999209;28;20079;-91
2024/03/23 03:04:57;;;;;;;14.77;2.72;;;5.00;99.90;;;;;;5016094;28;20443;-94
2024/03/23 03:07:23;;;;;;;13.00;2.13;;;4.90;99.90;;;;;;5016304;28;20054;-93
2024/03/23 03:09:49;;;;;;;20.83;2.25;;;4.90;99.90;;;;;;4999025;28;20026;-92
2024/03/23 03:12:14;;;;;;;8.30;1.58;;;5.00;99.90;;;;;;4999672;28;20123;-92
2024/03/23 03:14:40;;;;;;;14.50;2.08;;;5.00;99.90;;;;;;5015998;28;20049;-93
2024/03/23 03:17:06;;;;;;;14.52;1.77;;;5.00;99.90;;;;;;4998797;28;20044;-91
2024/03/23 03:19:32;;;;;;;24.92;3.42;;;5.00;99.90;;;;;;4998570;28;20065;-91
2024/03/23 03:21:58;;;;;;;12.38;2.15;;;5.00;99.90;;;;;;4998990;28;20038;-92
2024/03/23 03:24:24;;;;;;;19.83;2.67;;;5.00;99.90;;;;;;5016825;28;20502;-94
2024/03/23 03:26:49;;;;;;;20.42;2.53;;;5.00;99.90;;;;;;4999462;28;20018;-92
2024/03/23 03:29:15;;;;;;;15.95;2.20;;;5.00;99.90;;;;;;4999039;28;20045;-93
2024/03/23 03:31:44;;;;;;;10.43;1.50;;;5.00;99.90;;;;;;4998579;28;20053;-94
2024/03/23 03:34:10;;;;;;;14.27;1.50;;;5.00;99.90;;;;;;5016306;28;20644;-93
2024/03/23 03:36:35;;;;;;;10.68;1.95;;;5.00;99.90;;;;;;4998881;28;20030;-94
2024/03/23 03:39:03;;;;;;;11.48;2.22;;;5.00;99.90;;;;;;5015591;28;20026;-94
2024/03/23 03:41:29;;;;;;;22.83;2.92;;;5.00;99.90;;;;;;4998590;28;20034;-94
2024/03/23 03:43:55;;;;;;;14.73;2.33;;;5.00;99.90;;;;;;4999277;28;20117;-93
2024/03/23 03:46:21;;;;;;;18.30;2.45;;;5.00;99.90;;;;;;5000125;28;20080;-92
2024/03/23 03:48:48;;;;;;;16.38;1.48;;;5.00;99.90;;;;;;5023870;28;20022;-93
2024/03/23 03:51:14;;;;;;;13.85;1.98;;;5.00;99.90;;;;;;5005270;28;20022;-93
2024/03/23 03:53:39;;;;;;;27.67;2.15;;;5.00;99.90;;;;;;4998959;28;20387;-92
2024/03/23 03:56:05;;;;;;;14.90;2.30;;;5.00;99.90;;;;;;4998254;28;20025;-93
2024/03/23 03:58:32;;;;;;;24.25;2.90;;;5.00;99.90;;;;;;4997781;28;20029;-94
2024/03/23 04:00:57;;;;;;;12.82;1.98;;;5.00;99.90;;;;;;4997918;28;20377;-94
2024/03/23 04:03:23;;;;;;;16.15;2.65;;;5.00;99.90;;;;;;4997926;28;20029;-94
2024/03/23 04:05:55;;;;;;;14.23;1.98;;;5.00;99.90;;;;;;5015712;28;20097;-94
2024/03/23 04:08:21;;;;;;;11.70;2.35;;;5.00;99.90;;;;;;4997619;28;20022;-92
2024/03/23 04:10:47;;;;;;;14.70;2.35;;;5.00;99.90;;;;;;4997479;28;20036;-94
2024/03/23 04:13:13;;;;;;;18.67;2.10;;;5.00;99.90;;;;;;5014820;28;20021;-94
2024/03/23 04:15:40;;;;;;;16.33;3.50;;;4.90;99.90;;;;;;4997307;28;20018;-93
2024/03/23 04:18:05;;;;;;;20.00;2.97;;;4.90;99.90;;;;;;4997857;28;20382;-92
2024/03/23 04:20:32;;;;;;;16.30;2.55;;;4.90;99.90;;;;;;4997744;28;20248;-96
2024/03/23 04:22:58;;;;;;;10.02;1.65;;;4.90;99.90;;;;;;4997878;28;20101;-95
2024/03/23 04:25:24;;;;;;;16.13;2.58;;;4.80;99.90;;;;;;5001915;28;20022;-94
2024/03/23 04:27:49;;;;;;;16.02;2.50;;;4.80;99.90;;;;;;5001814;28;20044;-92
2024/03/23 04:30:16;;;;;;;10.00;2.13;;;4.80;99.90;;;;;;5021721;28;20021;-91
2024/03/23 04:32:42;;;;;;;17.00;2.83;;;4.70;99.90;;;;;;5005384;28;20037;-91
2024/03/23 04:35:11;;;;;;;12.80;2.63;;;4.70;99.90;;;;;;5024897;28;20048;-93
2024/03/23 04:37:37;;;;;;;15.75;2.58;;;4.70;99.90;;;;;;5027459;28;20014;-93
2024/03/23 04:40:04;;;;;;;14.07;2.20;;;4.70;99.90;;;;;;5002885;28;20045;-94
2024/03/23 04:42:30;;;;;;;9.52;1.65;;;4.70;99.90;;;;;;5000357;28;20029;-91
2024/03/23 04:44:55;;;;;;;9.68;1.80;;;4.60;99.90;;;;;;4998921;28;20025;-93
2024/03/23 04:47:21;;;;;;;21.27;3.15;;;4.60;99.90;;;;;;4999942;28;20018;-93
2024/03/23 04:49:47;;;;;;;5.88;0.93;;;4.50;99.90;;;;;;5017158;28;20553;-92
2024/03/23 04:52:13;;;;;;;14.55;1.60;;;4.50;99.90;;;;;;5003432;28;20022;-95
2024/03/23 04:54:40;;;;;;;12.70;1.45;;;4.40;99.90;;;;;;5001403;28;20032;-94
2024/03/23 04:57:06;;;;;;;7.15;1.50;;;4.20;99.90;;;;;;5001518;28;20018;-94
2024/03/23 04:59:32;;;;;;;13.50;1.75;;;4.20;99.90;;;;;;5000454;28;20107;-94
2024/03/23 05:01:57;;;;;;;14.18;2.03;;;4.20;99.90;;;;;;5008415;28;20030;-94
2024/03/23 05:04:23;;;;;;;19.05;2.22;;;4.20;99.90;;;;;;5014489;28;20014;-94
2024/03/23 05:06:49;;;;;;;11.30;1.92;;;4.20;99.90;;;;;;5017380;28;20030;-94
2024/03/23 05:09:14;;;;;;;18.05;4.47;;;4.10;99.90;;;;;;5007660;28;20036;-95
2024/03/23 05:11:41;;;;;;;18.13;3.28;;;4.20;99.90;;;;;;4999193;28;20083;-94
2024/03/23 05:14:07;;;;;;;15.13;2.28;;;4.20;99.90;;;;;;5001111;28;20025;-95
2024/03/23 05:16:33;;;;;;;10.75;2.25;;;4.30;99.90;;;;;;5001947;28;20041;-92
2024/03/23 05:18:59;;;;;;;5.43;1.63;;;4.30;99.90;;;;;;5004244;28;20506;-93
2024/03/23 05:21:24;;;;;;;10.73;1.77;;;4.20;99.90;;;;;;5002486;28;20022;-95
2024/03/23 05:23:51;;;;;;;9.25;1.50;;;4.10;99.90;;;;;;4997683;28;20037;-94
2024/03/23 05:26:17;;;;;;;16.52;2.30;;;4.10;99.90;;;;;;4997066;28;20121;-94
2024/03/23 05:28:43;;;;;;;12.77;2.10;;;4.00;99.90;;;;;;4997000;28;20053;-95
2024/03/23 05:31:09;;;;;;;6.78;1.75;;;4.00;99.90;;;;;;4998055;28;20395;-96
2024/03/23 05:33:38;;;;;;;19.08;3.72;;;4.00;99.90;;;;;;4997947;28;20025;-94
2024/03/23 05:36:04;;;;;;;9.10;1.85;;;4.00;99.90;;;;;;4998840;28;20057;-94
2024/03/23 05:38:30;;;;;;;24.42;2.25;;;4.00;99.90;;;;;;5002277;28;20053;-96
2024/03/23 05:40:57;;;;;;;10.82;1.77;;;4.00;99.90;;;;;;4997402;28;20033;-93
2024/03/23 05:43:23;;;;;;;11.02;1.92;;;4.00;99.90;;;;;;4997361;28;20033;-94
2024/03/23 05:45:57;;;;;;;6.05;1.30;;;4.00;99.90;;;;;;5001206;28;20030;-94
2024/03/23 05:48:22;;;;;;;13.63;1.77;;;3.90;99.90;;;;;;4998342;28;20057;-95
2024/03/23 05:50:49;;;;;;;6.43;1.20;;;3.90;99.90;;;;;;4998150;28;20038;-92
2024/03/23 05:53:16;;;;;;;11.77;1.33;;;3.80;99.90;;;;;;4998454;28;20030;-94
2024/03/23 05:55:42;;;;;;;11.13;1.20;;;3.80;99.90;;;;;;4998033;28;20048;-93
2024/03/23 05:58:08;;;;;;;5.18;1.48;;;3.80;99.90;;;;;;4997734;28;20030;-95
2024/03/23 06:00:34;;;;;;;9.27;1.50;;;3.80;99.90;;;;;;4998368;28;20045;-96
2024/03/23 06:03:00;;;;;;;21.40;2.45;;;3.80;99.90;;;;;;5020038;28;20018;-94
2024/03/23 06:05:25;;;;;;;12.70;1.80;;;3.80;99.90;;;;;;5010331;28;20033;-94
2024/03/23 06:07:51;;;;;;;11.35;2.25;;;3.80;99.90;;;;;;5000772;28;20034;-94
2024/03/23 06:10:17;;;;;;;20.05;2.10;;;3.80;99.90;;;;;;4998696;28;20030;-94
2024/03/23 06:12:42;;;;;;;18.48;1.75;;;3.80;99.90;;;;;;5001021;28;20044;-94
2024/03/23 06:15:10;;;;;;;16.20;1.98;;;3.80;99.90;;;;;;5000692;28;20032;-95
2024/03/23 06:17:39;;;;;;;14.63;1.77;;;3.90;99.90;;;;;;5002968;28;20033;-95
2024/03/23 06:20:10;;;;;;;16.08;2.40;;;3.90;99.90;;;;;;5018188;28;20456;-96
2024/03/23 06:22:36;;;;;;;26.10;3.22;;;3.90;99.90;;;;;;5002225;28;20105;-92
2024/03/23 06:25:01;;;;;;;19.65;2.20;;;3.90;99.90;;;;;;5011799;28;20037;-95
2024/03/23 06:27:27;;;;;;;13.30;3.95;;;4.00;99.90;;;;;;5002025;28;20122;-91
2024/03/23 06:29:53;;;;;;;8.27;1.63;;;4.00;99.90;;;;;;5000386;28;20069;-94
2024/03/23 06:32:19;;;;;;;14.32;1.65;;;4.00;99.90;;;;;;4999762;28;20471;-95
2024/03/23 06:34:44;;;;;;;9.55;1.88;;;4.00;99.90;;;;;;4999838;28;20030;-94
2024/03/23 06:37:10;;;;;;;11.68;1.60;;;3.90;99.90;;;;;;4999279;28;20025;-93
2024/03/23 06:39:37;;;;;;;9.98;1.65;;;3.90;99.90;;;;;;4999178;28;20045;-94
2024/03/23 06:42:03;;;;;;;10.88;1.98;;;3.90;99.90;;;;;;4998369;28;20101;-95
2024/03/23 06:44:29;;;;;;;17.23;1.90;;;3.90;99.90;;;;;;4999236;28;20117;-95
2024/03/23 06:46:55;;;;;;;13.88;3.72;;;4.00;99.90;;;;;;4999165;28;20108;-94
2024/03/23 06:49:20;;;;;;;13.25;2.20;;;4.00;99.90;;;;;;5000660;28;20026;-95
2024/03/23 06:51:46;;;;;;;11.32;2.03;;;4.00;99.90;;;;;;4999146;28;20113;-92
2024/03/23 06:54:12;;;;;;;11.43;1.90;;;4.00;99.90;;;;;;4999030;28;20202;-94
2024/03/23 06:56:38;;;;;;;15.40;2.30;;;4.00;99.90;;;;;;4999238;28;20041;-94
2024/03/23 06:59:03;;;;;;;13.57;2.30;;;4.00;99.90;;;;;;4999461;28;20033;-94
2024/03/23 07:01:29;;;;;;;8.32;1.50;;;4.00;99.90;;;;;;4999633;28;20025;-94
2024/03/23 07:03:55;;;;;;;9.20;1.17;;;4.00;99.90;;;;;;4998837;28;20108;-93
2024/03/23 07:06:21;;;;;;;10.48;2.22;;;4.00;99.90;;;;;;4998439;28;20022;-91
2024/03/23 07:08:47;;;;;;;10.07;1.15;;;4.10;99.90;;;;;;4998563;28;20045;-92
2024/03/23 07:11:21;;;;;;;8.25;1.80;;;4.00;99.90;;;;;;4998186;28;20140;-91
2024/03/23 07:13:50;;;;;;;15.02;1.30;;;4.00;99.90;;;;;;5015992;28;20056;-95
2024/03/23 07:16:16;;;;;;;3.67;0.75;;;4.00;99.90;;;;;;4998292;28;20026;-93
2024/03/23 07:18:42;;;;;;;11.88;2.38;;;4.00;99.90;;;;;;4998713;28;20029;-94
2024/03/23 07:21:07;;;;;;;17.77;4.53;;;4.00;99.90;;;;;;4998457;28;20041;-91
2024/03/23 07:23:34;;;;;;;13.15;3.28;;;4.00;99.90;;;;;;4998729;28;20030;-92
2024/03/23 07:26:01;;;;;;;12.18;2.03;;;4.00;99.90;;;;;;4998380;28;20499;-91
2024/03/23 07:28:31;;;;;;;15.75;2.03;;;4.00;99.90;;;;;;4998122;28;20116;-94
2024/03/23 07:31:11;;;;;;;12.63;2.03;;;4.00;99.90;;;;;;4996253;28;20049;-94
2024/03/23 07:33:48;;;;;;;10.75;2.17;;;4.10;99.90;;;;;;4996705;28;20104;-92
2024/03/23 07:36:13;;;;;;;14.07;2.63;;;4.10;99.90;;;;;;4996154;28;20037;-94
2024/03/23 07:38:45;;;;;;;14.93;4.10;;;4.10;99.90;;;;;;4998332;28;20395;-92
2024/03/23 07:41:14;;;;;;;8.10;2.90;;;4.10;99.90;;;;;;4998080;28;20026;-93
2024/03/23 07:43:40;;;;;;;9.32;2.03;;;4.10;99.90;;;;;;4998562;28;20113;-93
2024/03/23 07:46:06;;;;;;;14.70;2.17;;;4.10;99.90;;;;;;4998815;28;20526;-93
2024/03/23 07:48:32;;;;;;;16.77;2.15;;;4.20;99.90;;;;;;4999405;28;20044;-93
2024/03/23 07:51:01;;;;;;;18.77;2.50;;;4.20;99.90;;;;;;4999294;28;20052;-93
2024/03/23 07:53:28;;;;;;;13.95;3.00;;;4.30;99.90;;;;;;4999872;28;20014;-93
2024/03/23 07:56:02;;;;;;;17.60;2.40;;;4.30;99.90;;;;;;5000779;28;20053;-91
2024/03/23 07:58:28;;;;;;;12.93;1.77;;;4.40;99.90;;;;;;5002429;28;20022;-93
2024/03/23 08:00:55;;;;;;;9.85;2.15;;;4.40;99.90;;;;;;5004355;28;20030;-95
2024/03/23 08:03:21;;;;;;;9.73;1.85;;;4.50;99.90;;;;;;5002969;28;20045;-92
2024/03/23 08:05:47;;;;;;;17.05;1.85;;;4.50;99.90;;;;;;4999900;28;20447;-94
2024/03/23 08:08:13;;;;;;;18.15;3.88;;;4.50;99.90;;;;;;5001230;28;20022;-92
2024/03/23 08:10:50;;;;;;;14.50;1.67;;;4.50;99.90;;;;;;4999792;28;20041;-93
2024/03/23 08:13:15;;;;;;;12.60;1.80;;;4.50;99.90;;;;;;5000555;28;20112;-92
2024/03/23 08:15:41;;;;;;;11.63;1.77;;;4.50;99.90;;;;;;5003665;28;20046;-95
2024/03/23 08:18:07;;;;;;;14.95;2.00;;;4.50;99.90;;;;;;5008065;28;20053;-93
2024/03/23 08:20:33;;;;;;;10.60;1.58;;;4.50;99.90;;;;;;5005781;28;20109;-93
2024/03/23 08:22:59;;;;;;;13.82;1.58;;;4.50;99.90;;;;;;5000943;28;20122;-94
2024/03/23 08:25:24;;;;;;;12.63;1.65;;;4.60;99.90;;;;;;4998834;28;20073;-93
2024/03/23 08:27:51;;;;;;;16.25;3.55;;;4.60;99.90;;;;;;5001371;28;20018;-93
2024/03/23 08:30:16;;;;;;;13.65;2.80;;;4.60;99.90;;;;;;5002030;28;20026;-92
2024/03/23 08:32:42;;;;;;;9.60;1.58;;;4.70;99.90;;;;;;5000104;28;20022;-94
2024/03/23 08:35:09;;;;;;;14.05;2.45;;;4.80;99.90;;;;;;4998112;28;20028;-93
2024/03/23 08:37:35;;;;;;;13.80;1.88;;;4.90;99.90;;;;;;4997060;28;20195;-95
2024/03/23 08:40:00;;;;;;;20.45;2.60;;;5.00;99.90;;;;;;4998470;28;20483;-94
2024/03/23 08:42:26;;;;;;;12.70;1.23;;;5.10;99.90;;;;;;4998370;28;20030;-94
2024/03/23 08:44:51;;;;;;;14.98;2.30;;;5.20;99.90;;;;;;4998912;28;20026;-91
2024/03/23 08:47:17;;;;;;;13.52;1.92;;;5.30;99.90;;;;;;5000136;28;20478;-92
2024/03/23 08:49:44;;;;;;;18.58;3.17;;;5.40;99.90;;;;;;5001332;28;20040;-93
2024/03/23 08:52:10;;;;;;;15.77;3.00;;;5.60;99.90;;;;;;5009235;28;20038;-92
2024/03/23 08:54:36;;;;;;;21.98;2.45;;;5.60;99.90;;;;;;5031732;28;20168;-92
2024/03/23 08:57:01;;;;;;;17.20;3.60;;;5.60;99.90;;;;;;5011186;28;20029;-93
2024/03/23 08:59:27;;;;;;;18.73;4.82;;;5.60;99.90;;;;;;5003175;28;20033;-93
2024/03/23 09:01:53;;;;;;;15.88;3.35;;;5.60;99.90;;;;;;5000184;28;20471;-93
2024/03/23 09:04:19;;;;;;;8.57;1.92;;;5.40;99.90;;;;;;4999002;28;20030;-93
2024/03/23 09:06:47;;;;;;;13.75;2.00;;;5.40;99.90;;;;;;4998497;28;20052;-93
2024/03/23 09:09:13;;;;;;;8.18;1.55;;;5.40;99.90;;;;;;4999733;28;20030;-94
2024/03/23 09:11:39;;;;;;;14.30;1.88;;;5.50;99.90;;;;;;4998638;28;20057;-93
2024/03/23 09:14:04;;;;;;;8.88;1.75;;;5.50;99.90;;;;;;4999097;28;20092;-94
2024/03/23 09:16:30;;;;;;;3.97;0.77;;;5.70;99.90;;;;;;4999341;28;20109;-92
2024/03/23 09:18:55;;;;;;;17.90;2.15;;;5.80;99.90;;;;;;4998085;28;20030;-93
2024/03/23 09:21:21;;;;;;;12.13;1.70;;;5.90;99.90;;;;;;5015627;28;20029;-91
2024/03/23 09:23:47;;;;;;;10.23;2.53;;;6.00;99.90;;;;;;4997799;28;20062;-93
2024/03/23 09:26:13;;;;;;;11.43;1.70;;;6.20;99.90;;;;;;4997676;28;20033;-91
2024/03/23 09:28:38;;;;;;;14.43;2.25;;;6.40;99.90;;;;;;4997047;28;20041;-91
2024/03/23 09:31:05;;;;;;;9.23;1.15;;;6.50;99.90;;;;;;4998792;28;20033;-91
2024/03/23 09:33:31;;;;;;;18.50;1.83;;;6.60;99.90;;;;;;4997692;28;20022;-93
2024/03/23 09:35:57;;;;;;;7.13;1.80;;;6.70;99.90;;;;;;4997867;28;20022;-92
2024/03/23 09:38:25;;;;;;;9.90;1.42;;;6.70;99.90;;;;;;5000240;28;20030;-91
2024/03/23 09:40:53;;;;;;;9.45;1.63;;;6.70;99.90;;;;;;4996415;28;20503;-94
2024/03/23 09:43:19;;;;;;;9.38;1.50;;;6.70;99.90;;;;;;4998106;28;20022;-91
2024/03/23 09:45:45;;;;;;;7.75;1.42;;;6.80;99.90;;;;;;4998261;28;20026;-92
2024/03/23 09:48:12;;;;;;;11.15;1.48;;;6.90;99.90;;;;;;4996406;28;20029;-94
2024/03/23 09:50:43;;;;;;;18.85;2.20;;;6.90;99.90;;;;;;4994843;28;20030;-92
2024/03/23 09:53:11;;;;;;;;;;;7.00;99.90;;;;;;4999628;28;20022;-93
2024/03/23 09:55:44;;;;;;;10.43;1.40;;;7.10;99.90;;;;;;4998268;28;20278;-93
2024/03/23 09:58:16;;;;;;;12.88;1.90;;;7.30;99.90;;;;;;5001848;28;20026;-91
2024/03/23 10:00:42;;;;;;;13.05;1.88;;;7.40;99.90;;;;;;5011914;28;20049;-92
2024/03/23 10:03:11;;;;;;;3.90;0.95;;;7.60;99.90;;;;;;5002000;28;20022;-92
2024/03/23 10:05:37;;;;;;;9.57;1.98;;;7.60;99.90;;;;;;5001569;28;20037;-93
2024/03/23 10:08:23;;;;;;;12.52;1.65;;;7.70;99.90;;;;;;4997271;28;20494;-92
2024/03/23 10:10:49;;;;;;;15.40;1.58;;;7.70;99.90;;;;;;5001105;28;20073;-92
2024/03/23 10:13:25;;;;;;;14.95;1.75;;;7.70;99.90;;;;;;4996749;28;20025;-93
2024/03/23 10:15:56;;;;;;;18.30;1.95;;;7.60;99.90;;;;;;4992846;28;20030;-94
2024/03/23 10:18:23;;;;;;;6.65;0.98;;;7.60;99.90;;;;;;5020216;28;20056;-94
2024/03/23 10:21:08;;;;;;;11.98;1.67;;;7.70;99.90;;;;;;4989471;28;20034;-90
2024/03/23 10:23:34;;;;;;;16.10;1.60;;;7.90;99.90;;;;;;4998185;28;20029;-92
2024/03/23 10:26:22;;;;;;;12.45;1.50;;;8.10;99.90;;;;;;5000149;28;20037;-94
2024/03/23 10:29:17;;;;;;;5.95;1.02;;;8.30;99.90;;;;;;5011273;28;20514;-93
2024/03/23 10:31:43;;;;;;;14.63;1.70;;;8.30;99.90;;;;;;5004561;28;20041;-92
2024/03/23 10:34:12;;;;;;;17.65;2.05;;;8.40;99.90;;;;;;5000865;28;20117;-92
2024/03/23 10:36:41;;;;;;;15.52;3.28;;;8.60;99.90;;;;;;5000088;28;20101;-94
2024/03/23 10:39:07;;;;;;;12.35;2.13;;;8.80;99.90;;;;;;5004032;28;20079;-93
2024/03/23 10:41:34;;;;;;;14.07;2.25;;;9.10;99.90;;;;;;5006616;28;20033;-92
2024/03/23 10:44:02;;;;;;;13.20;1.92;;;9.40;99.90;;;;;;5004293;28;20120;-93
2024/03/23 10:46:28;;;;;;;8.57;1.17;;;9.60;99.90;;;;;;5002273;28;20030;-94
2024/03/23 10:48:54;;;;;;;9.05;1.80;;;9.70;99.90;;;;;;5001028;28;20022;-93
2024/03/23 10:51:19;;;;;;;5.22;1.00;;;9.60;99.90;;;;;;5001708;28;20053;-94
2024/03/23 10:53:47;;;;;;;11.25;1.17;;;9.30;99.30;;;;;;5003363;28;20097;-91
2024/03/23 10:56:15;;;;;;;9.73;1.02;;;8.90;99.70;;;;;;5006467;28;20052;-91
2024/03/23 10:58:44;;;;;;;4.30;0.88;;;8.50;99.90;;;;;;5002704;28;20084;-95
2024/03/23 11:01:16;;;;;;;8.35;1.60;;;8.10;99.90;;;;;;4997496;28;20034;-94
2024/03/23 11:03:46;;;;;;;10.43;1.70;;;7.70;99.90;;;;;;4998827;28;20509;-92
2024/03/23 11:06:38;;;;;;;7.07;1.80;;;7.50;99.90;;;;;;4999836;28;20235;-92
2024/03/23 11:09:23;;;;;;;2.63;0.70;;;7.40;99.90;;;;;;5000994;28;20025;-91
2024/03/23 11:11:49;;;;;;;10.65;1.65;;;7.70;99.90;;;;;;5000376;28;20045;-92
2024/03/23 11:14:23;;;;;;;4.18;1.23;;;7.90;99.90;;;;;;5000351;28;20026;-91
2024/03/23 11:17:09;;;;;;;7.13;0.85;;;8.20;99.90;;;;;;5012459;28;20133;-92
2024/03/23 11:19:38;;;;;;;11.25;1.58;;;8.20;99.90;;;;;;5000882;28;20030;-91
2024/03/23 11:22:08;;;;;;;9.90;0.90;;;8.20;99.90;;;;;;5010756;28;20029;-91
2024/03/23 11:24:33;;;;;;;6.90;1.50;;;8.10;99.90;;;;;;5023539;28;20580;-92
2024/03/23 11:27:01;;;;;;;6.30;1.55;;;8.10;99.90;;;;;;5023909;28;20033;-91
2024/03/23 11:29:28;;;;;;;7.47;1.85;;;8.30;99.90;;;;;;5008507;28;20038;-92
2024/03/23 11:31:53;;;;;;;11.63;2.33;;;8.60;99.90;;;;;;5000987;28;20082;-91
2024/03/23 11:34:20;;;;;;;7.95;1.33;;;8.90;99.90;;;;;;5001442;28;20468;-92
2024/03/23 11:36:47;;;;;;;7.03;1.50;;;9.20;99.90;;;;;;5000236;28;20026;-89
2024/03/23 11:39:14;;;;;;;8.43;1.10;;;9.60;99.90;;;;;;4997028;28;20023;-90
2024/03/23 11:41:51;;;;;;;3.95;0.80;;;9.60;99.90;;;;;;4995916;28;20030;-88
2024/03/23 11:44:24;;;;;;;4.45;0.52;;;9.30;98.20;;;;;;4994223;28;20117;-92
2024/03/23 11:46:52;;;;;;;2.17;0.80;;;9.10;99.90;;;;;;4994221;28;20072;-89
2024/03/23 11:49:29;;;;;;;2.05;0.63;;;9.10;99.90;;;;;;4993940;28;20077;-89
2024/03/23 11:51:56;;;;;;;5.22;0.82;;;9.20;99.90;;;;;;4994567;28;20070;-90
2024/03/23 11:54:23;;;;;;;8.02;1.20;;;9.40;99.90;;;;;;4995100;28;20042;-90
2024/03/23 11:57:08;;;;;;;5.80;1.73;;;9.60;99.30;;;;;;4994868;28;20534;-89
2024/03/23 11:59:36;;;;;;;7.95;1.48;;;9.80;99.20;;;;;;4995158;28;20026;-89
2024/03/23 12:02:18;;;;;;;9.95;1.42;;;10.00;97.10;;;;;;4995863;28;20053;-89
2024/03/23 12:04:43;;;;;;;8.32;1.75;;;10.20;96.60;;;;;;4995608;28;20113;-90
2024/03/23 12:07:20;;;;;;;12.07;1.65;;;10.50;95.40;;;;;;4996069;28;20050;-89
2024/03/23 12:09:47;;;;;;;7.57;0.82;;;10.70;95.10;;;;;;4996773;28;20022;-90
2024/03/23 12:12:19;;;;;;;11.95;1.20;;;10.80;94.80;;;;;;5032208;28;20128;-89
2024/03/23 12:14:46;;;;;;;8.02;1.10;;;10.80;92.80;;;;;;5017662;28;20029;-89
2024/03/23 12:17:15;;;;;;;5.40;1.55;;;10.40;91.80;;;;;;5018504;28;20033;-91
2024/03/23 12:19:44;;;;;;;9.73;1.10;;;9.90;92.60;;;;;;5020417;28;20039;-91
2024/03/23 12:22:10;;;;;;;8.77;1.10;;;9.60;94.10;;;;;;5018889;28;20072;-90
2024/03/23 12:24:36;;;;;;;5.95;1.17;;;9.50;95.80;;;;;;5020179;28;20034;-90
2024/03/23 12:27:03;;;;;;;5.75;1.13;;;9.60;96.80;;;;;;5019117;28;20108;-89
2024/03/23 12:29:31;;;;;;;9.07;1.73;;;9.90;97.40;;;;;;5019554;28;20030;-89
2024/03/23 12:32:00;;;;;;;8.02;1.17;;;10.20;97.00;;;;;;5018189;28;20071;-89
2024/03/23 12:34:26;;;;;;;10.57;2.78;;;10.50;96.60;;;;;;5019880;28;20034;-89
2024/03/23 12:36:52;;;;;;;8.05;1.20;;;10.70;94.80;;;;;;5017814;28;20434;-89
2024/03/23 12:39:18;;;;;;;4.80;1.15;;;10.90;93.80;;;;;;5018328;28;20552;-89
2024/03/23 12:41:44;;;;;;;11.77;1.20;;;11.10;92.50;;;;;;5018884;28;20398;-90
2024/03/23 12:44:11;;;;;;;3.72;1.27;;;11.20;91.80;;;;;;5008427;28;20022;-90
2024/03/23 12:46:38;;;;;;;5.50;1.27;;;11.30;91.10;;;;;;4999343;28;20100;-90
2024/03/23 12:49:05;;;;;;;5.97;0.98;;;11.60;90.80;;;;;;4998545;28;20672;-90
2024/03/23 12:51:30;;;;;;;10.63;1.17;;;11.70;87.50;;;;;;4998646;28;20022;-91